Alpha, OH

11:41 PM EDT on October 25, 2014 (GMT -0400)
Hunters Point | Change Station
CLOSE
Current Station
Personal Weather Station
Location: Dayton, OH
Elevation: 850 ft
Nearby Weather Stations

Elev 850 ft 39.73 °N, 84.02 °W | Updated 3 seconds ago

Clear
Clear
61.9 °F
Feels Like 61.9 °F
N
0.9
Wind Variable Wind from South
Gusts 2.5 mph

Today
High -- | Low -- °F
--% Chance of Precip.
Yesterday
High -- | Low -- °F
Precip. -- in
7:56 AM 6:42 PM
Waxing Crescent, 5% visible
Pressure 29.91 in
Visibility 10.0 miles
Clouds Clear
Dew Point 48 °F
Humidity 59%
Rainfall 0.00 in
Snow Depth Not available.
UV 0 out of 12
Pollen 1.70 out of 12
Ozone Good
PM2.5 Good
Flu Activity Sporadic
METAR KFFO 260258Z AUTO 25006KT 10SM CLR 13/07 A2990 RMK AO2 SLP127 T01320073 53006

More Conditions Fewer Conditions

Pressure 29.91 in
Visibility 10.0 miles
Clouds Clear
Dew Point 48 °F
Humidity 59%
Rainfall 0.00 in
Snow Depth Not available.
UV 0 out of 12
Pollen 1.70 out of 12
Ozone Good
PM2.5 Good
Flu Activity Sporadic
METAR KFFO 260258Z AUTO 25006KT 10SM CLR 13/07 A2990 RMK AO2 SLP127 T01320073 53006

More Conditions Fewer Conditions

10-Day Weather Forecast

Almanac

Astronomy

Oct. 25, 2014 Rise Set
Actual Time 7:56 AM EDT 6:42 PM EDT
Civil Twilight 7:29 AM EDT 7:10 PM EDT
Nautical Twilight 6:57 AM EDT 7:41 PM EDT
Astronomical Twilight 6:26 AM EDT 8:13 PM EDT
Moon 9:34 AM EDT (10/25) 8:05 PM EDT (10/25)
Length of Visible Light 11h 41m
Length of Day
10h 45m
Tomorrow will be 2m 25s shorter.
Waxing Crescent, 5% of the Moon is Illuminated
Today
Waxing Crescent
Oct 30
First Quarter
Nov 6
Full
Nov 14
Last Quarter
Nov 22
New

Today's Extremes

State Highs State Lows

Community

WunderPhotos

Upload Photos

1,765,095 photos uploaded!

Nearby

Air Quality

  Air Quality AQ Index Pollutant
Yesterday Good
PM2.5
Yesterday Good
OZONE
Current Good
PM2.5
Current Good
OZONE
Saturday Moderate
PM2.5
Saturday Good
OZONE
Sunday Moderate
PM2.5
Sunday Good
OZONE
Monday Moderate
PM2.5
Monday Good
OZONE
Tuesday Good
PM2.5
Tuesday Good
OZONE

Snow Depth

Station Depth Elevation
No new snow has been reported.

Earthquake Activity

City Distance Mag. Time & Date
No recent earthquake activity has been reported nearby.
Minimum magnitude displayed is 2.5.

Coastal Water Temperatures

Place Temperature
No Stations Reporting

Nearby Weather Stations